createdAt,value
2023-01-12T00:01:15.677Z,100900.69
2023-01-12T00:04:21.243Z,100896.34
2023-01-12T00:07:23.884Z,100901.50
2023-01-12T00:10:26.517Z,100894.81
2023-01-12T00:13:29.974Z,100901.50
2023-01-12T00:16:35.806Z,100891.94
2023-01-12T00:19:39.376Z,100904.72
2023-01-12T00:22:42.021Z,100893.72
2023-01-12T00:25:50.791Z,100905.66
2023-01-12T00:28:54.157Z,100903.41
2023-01-12T00:31:58.499Z,100905.44
2023-01-12T00:35:01.180Z,100894.53
2023-01-12T00:38:06.355Z,100879.88
2023-01-12T00:41:11.517Z,100887.50
2023-01-12T00:44:32.435Z,100889.53
2023-01-12T00:47:35.402Z,100892.50
2023-01-12T00:50:37.837Z,100889.03
2023-01-12T00:53:40.604Z,100900.63
2023-01-12T00:56:43.091Z,100906.62
2023-01-12T00:59:46.526Z,100909.38
2023-01-12T01:02:49.208Z,100902.19
2023-01-12T01:05:51.925Z,100892.88
2023-01-12T01:08:54.301Z,100911.75
2023-01-12T01:11:58.314Z,100910.16
2023-01-12T01:15:00.699Z,100915.66
2023-01-12T01:18:03.424Z,100934.53
2023-01-12T01:21:06.113Z,100923.28
2023-01-12T01:24:14.281Z,100915.88
2023-01-12T01:27:16.871Z,100932.34
2023-01-12T01:30:19.534Z,100929.25
2023-01-12T01:33:21.844Z,100933.22
2023-01-12T01:36:24.572Z,100938.37
2023-01-12T01:39:26.947Z,100938.37
2023-01-12T01:42:29.662Z,100952.47
2023-01-12T01:45:32.475Z,100946.84
2023-01-12T01:48:39.209Z,100942.09
2023-01-12T01:51:42.332Z,100937.31
2023-01-12T01:54:56.115Z,100931.44
2023-01-12T01:58:02.865Z,100931.69
2023-01-12T02:01:06.439Z,100934.91
2023-01-12T02:04:09.503Z,100932.16
2023-01-12T02:07:12.566Z,100938.91
2023-01-12T02:10:15.361Z,100944.75
2023-01-12T02:13:37.351Z,100950.94
2023-01-12T02:17:01.268Z,100943.16
2023-01-12T02:20:12.706Z,100962.16
2023-01-12T02:23:32.019Z,100948.78
2023-01-12T02:26:55.049Z,100953.06
2023-01-12T02:30:30.699Z,100954.47
2023-01-12T02:33:48.352Z,100956.66
2023-01-12T02:37:21.636Z,100952.00
2023-01-12T02:40:53.166Z,100942.81
2023-01-12T02:43:55.868Z,100946.28
2023-01-12T02:47:05.274Z,100945.19
2023-01-12T02:50:12.797Z,100928.69
2023-01-12T02:53:27.967Z,100924.75
2023-01-12T02:56:34.784Z,100926.41
2023-01-12T02:59:41.972Z,100917.12
2023-01-12T03:02:44.432Z,100927.12
2023-01-12T03:05:47.612Z,100930.22
2023-01-12T03:08:52.570Z,100937.75
2023-01-12T03:12:03.844Z,100918.87
2023-01-12T03:15:08.830Z,100923.41
2023-01-12T03:18:35.229Z,100920.34
2023-01-12T03:21:42.580Z,100928.91
2023-01-12T03:24:56.698Z,100925.56
2023-01-12T03:28:01.046Z,100907.87
2023-01-12T03:31:09.460Z,100921.00
2023-01-12T03:34:12.002Z,100913.91
2023-01-12T03:37:25.020Z,100910.53
2023-01-12T03:40:35.420Z,100909.81
2023-01-12T03:44:00.248Z,100915.75
2023-01-12T03:47:09.932Z,100921.16
2023-01-12T03:50:35.177Z,100907.41
2023-01-12T03:53:40.054Z,100922.34
2023-01-12T03:56:45.482Z,100912.91
2023-01-12T03:59:49.072Z,100916.09
2023-01-12T04:03:09.261Z,100915.69
2023-01-12T04:06:11.921Z,100895.88
2023-01-12T04:09:14.251Z,100907.94
2023-01-12T04:12:16.854Z,100909.97
2023-01-12T04:15:19.338Z,100900.03
2023-01-12T04:18:22.034Z,100908.00
2023-01-12T04:21:43.458Z,100903.84
2023-01-12T04:24:46.740Z,100900.81
2023-01-12T04:27:56.875Z,100906.28
2023-01-12T04:30:59.491Z,100896.50
2023-01-12T04:34:02.130Z,100900.91
2023-01-12T04:37:05.162Z,100897.50
2023-01-12T04:40:08.969Z,100906.19
2023-01-12T04:43:12.079Z,100903.66
2023-01-12T04:46:14.489Z,100905.03
2023-01-12T04:49:18.101Z,100895.63
2023-01-12T04:52:20.454Z,100911.41
2023-01-12T04:55:23.231Z,100908.88
2023-01-12T04:58:25.630Z,100900.63
2023-01-12T05:01:29.952Z,100915.22
2023-01-12T05:04:32.544Z,100927.66
2023-01-12T05:07:36.689Z,100921.41
2023-01-12T05:10:39.459Z,100916.91
2023-01-12T05:13:42.517Z,100923.09
2023-01-12T05:16:45.037Z,100922.59
2023-01-12T05:19:49.651Z,100925.28
2023-01-12T05:22:52.760Z,100928.78
2023-01-12T05:25:59.306Z,100934.78
2023-01-12T05:29:01.751Z,100931.94
2023-01-12T05:32:04.618Z,100926.09
2023-01-12T05:35:08.836Z,100932.09
2023-01-12T05:38:11.918Z,100926.28
2023-01-12T05:41:14.870Z,100938.50
2023-01-12T05:44:17.625Z,100951.16
2023-01-12T05:47:20.085Z,100938.59
2023-01-12T05:50:22.759Z,100947.78
2023-01-12T05:53:26.822Z,100929.81
2023-01-12T05:56:30.509Z,100942.22
2023-01-12T05:59:33.041Z,100927.28
2023-01-12T06:02:35.710Z,100934.41
2023-01-12T06:05:38.463Z,100931.66
2023-01-12T06:08:40.801Z,100941.66
2023-01-12T06:12:02.059Z,100922.03
2023-01-12T06:15:04.757Z,100938.31
2023-01-12T06:18:07.371Z,100927.72
2023-01-12T06:21:10.330Z,100938.00
2023-01-12T06:24:12.936Z,100926.28
2023-01-12T06:27:16.621Z,100941.41
2023-01-12T06:30:19.304Z,100945.72
2023-01-12T06:33:21.651Z,100956.28
2023-01-12T06:36:24.467Z,100962.03
2023-01-12T06:39:28.991Z,100962.87
2023-01-12T06:42:31.942Z,100965.00
2023-01-12T06:45:34.252Z,100963.25
2023-01-12T06:48:39.184Z,100975.63
2023-01-12T06:51:42.235Z,100985.91
2023-01-12T06:54:44.909Z,100986.44
2023-01-12T06:57:47.279Z,100985.13
2023-01-12T07:00:50.534Z,100997.09
2023-01-12T07:03:53.657Z,100982.16
2023-01-12T07:06:56.391Z,100996.94
2023-01-12T07:09:58.676Z,100995.53
2023-01-12T07:13:01.295Z,101004.84
2023-01-12T07:16:04.049Z,101008.84
2023-01-12T07:19:06.689Z,101010.25
2023-01-12T07:22:09.304Z,101003.09
2023-01-12T07:25:11.936Z,101005.09
2023-01-12T07:28:14.642Z,101009.87
2023-01-12T07:31:19.440Z,101015.12
2023-01-12T07:34:21.996Z,101000.78
2023-01-12T07:37:24.700Z,101003.78
2023-01-12T07:40:27.160Z,101016.66
2023-01-12T07:43:30.583Z,101016.66
2023-01-12T07:46:33.064Z,101015.16
2023-01-12T07:49:35.789Z,101025.22
2023-01-12T07:52:38.358Z,101025.22
2023-01-12T07:55:43.718Z,101040.50
2023-01-12T07:58:49.678Z,101037.16
2023-01-12T08:01:53.885Z,101023.31
2023-01-12T08:04:57.073Z,101035.00
2023-01-12T08:08:00.007Z,101029.56
2023-01-12T08:11:05.044Z,101038.34
2023-01-12T08:14:07.388Z,101038.47
2023-01-12T08:17:21.784Z,101025.16
2023-01-12T08:20:30.534Z,101045.72
2023-01-12T08:23:41.668Z,101046.16
2023-01-12T08:26:48.211Z,101026.75
2023-01-12T08:29:54.553Z,101030.69
2023-01-12T08:33:00.778Z,101024.34
2023-01-12T08:36:10.408Z,101035.88
2023-01-12T08:39:12.906Z,101046.06
2023-01-12T08:42:15.639Z,101038.41
2023-01-12T08:45:18.157Z,101035.81
2023-01-12T08:48:20.953Z,101022.50
2023-01-12T08:51:23.358Z,101045.16
2023-01-12T08:54:26.167Z,101028.91
2023-01-12T08:57:28.766Z,101043.13
2023-01-12T09:00:31.672Z,101032.41
2023-01-12T09:03:34.810Z,101035.84
2023-01-12T09:06:40.635Z,101038.66
2023-01-12T09:09:43.016Z,101021.00
2023-01-12T09:12:45.683Z,101038.41
2023-01-12T09:16:10.886Z,101044.75
2023-01-12T09:19:11.062Z,101043.87
2023-01-12T09:22:13.378Z,101037.31
2023-01-12T09:25:16.274Z,101038.41
2023-01-12T09:28:18.646Z,101029.31
2023-01-12T09:31:23.558Z,101046.81
2023-01-12T09:34:28.525Z,101040.25
2023-01-12T09:37:31.508Z,101035.22
2023-01-12T09:40:35.627Z,101053.34
2023-01-12T09:43:59.365Z,101045.81
2023-01-12T09:47:05.405Z,101036.44
2023-01-12T09:50:28.272Z,101022.63
2023-01-12T09:53:34.334Z,101036.69
2023-01-12T09:57:01.857Z,101014.34
2023-01-12T10:00:13.839Z,101024.22
2023-01-12T10:03:41.663Z,101022.66
2023-01-12T10:06:44.310Z,101024.41
2023-01-12T10:09:47.057Z,101024.06
2023-01-12T10:12:59.971Z,101025.19
2023-01-12T10:16:14.567Z,101011.88
2023-01-12T10:19:31.152Z,101029.94
2023-01-12T10:23:09.003Z,101014.41
2023-01-12T10:26:18.592Z,101019.22
2023-01-12T10:29:21.254Z,101017.78
2023-01-12T10:32:31.384Z,101018.66
2023-01-12T10:35:59.526Z,101021.84
2023-01-12T10:39:04.885Z,101014.69
2023-01-12T10:42:35.880Z,101019.94
2023-01-12T10:45:38.384Z,101007.84
2023-01-12T10:48:45.057Z,100997.03
2023-01-12T10:52:02.157Z,101007.91
2023-01-12T10:55:05.388Z,100998.78
2023-01-12T10:58:30.336Z,100996.00
2023-01-12T11:02:11.856Z,100999.69
2023-01-12T11:05:30.768Z,100991.16
2023-01-12T11:08:33.410Z,100992.03
2023-01-12T11:11:35.845Z,100982.03
2023-01-12T11:14:38.507Z,100991.72
2023-01-12T11:18:08.877Z,100978.97
2023-01-12T11:21:14.967Z,100961.53
2023-01-12T11:24:23.236Z,100966.00
2023-01-12T11:27:31.308Z,100962.41
2023-01-12T11:30:46.851Z,100971.84
2023-01-12T11:34:00.362Z,100969.37
2023-01-12T11:37:10.820Z,100964.06
2023-01-12T11:40:25.756Z,100963.34
2023-01-12T11:43:46.450Z,100959.16
2023-01-12T11:46:56.174Z,100959.41
2023-01-12T11:50:05.920Z,100961.38
2023-01-12T11:53:19.146Z,100953.66
2023-01-12T11:56:30.320Z,100954.47
2023-01-12T11:59:45.070Z,100957.28
2023-01-12T12:02:50.351Z,100950.38
2023-01-12T12:06:22.708Z,100949.25
2023-01-12T12:09:39.566Z,100943.19
2023-01-12T12:12:49.898Z,100935.94
2023-01-12T12:16:16.842Z,100935.72
2023-01-12T12:19:27.537Z,100932.94
2023-01-12T12:22:53.089Z,100940.47
2023-01-12T12:26:21.833Z,100929.13
2023-01-12T12:29:59.047Z,100929.63
2023-01-12T12:33:20.796Z,100925.16
2023-01-12T12:37:02.591Z,100931.00
2023-01-12T12:40:56.381Z,100931.84
2023-01-12T12:44:52.593Z,100931.59
2023-01-12T12:48:01.685Z,100928.22
2023-01-12T12:51:08.602Z,100936.03
2023-01-12T12:54:17.217Z,100929.94
2023-01-12T12:57:19.531Z,100923.56
2023-01-12T13:00:46.776Z,100930.16
2023-01-12T13:03:51.938Z,100928.22
2023-01-12T13:06:54.598Z,100924.34
2023-01-12T13:10:15.429Z,100908.00
2023-01-12T13:13:33.546Z,100908.28
2023-01-12T13:16:35.873Z,100914.91
2023-01-12T13:19:40.053Z,100926.56
2023-01-12T13:22:42.380Z,100919.91
2023-01-12T13:25:51.155Z,100924.91
2023-01-12T13:29:24.900Z,100918.78
2023-01-12T13:32:42.897Z,100916.03
2023-01-12T13:35:46.254Z,100909.34
2023-01-12T13:38:59.401Z,100924.91
2023-01-12T13:42:20.670Z,100913.78
2023-01-12T13:45:24.003Z,100920.69
2023-01-12T13:48:28.388Z,100924.59
2023-01-12T13:51:50.597Z,100928.97
2023-01-12T13:54:53.014Z,100923.12
2023-01-12T13:57:58.187Z,100934.56
2023-01-12T14:01:01.506Z,100925.97
2023-01-12T14:04:19.849Z,100915.44
2023-01-12T14:07:37.781Z,100924.03
2023-01-12T14:10:54.065Z,100933.44
2023-01-12T14:14:44.585Z,100931.19
2023-01-12T14:17:52.701Z,100939.47
2023-01-12T14:20:59.636Z,100927.81
2023-01-12T14:24:16.446Z,100928.06
2023-01-12T14:27:23.434Z,100922.53
2023-01-12T14:30:28.543Z,100910.03
2023-01-12T14:33:35.735Z,100908.94
2023-01-12T14:36:44.202Z,100919.72
2023-01-12T14:39:46.875Z,100923.06
2023-01-12T14:43:08.486Z,100898.91
2023-01-12T14:46:27.363Z,100905.81
2023-01-12T14:49:35.670Z,100907.47
2023-01-12T14:52:38.882Z,100900.25
2023-01-12T14:55:41.774Z,100910.72
2023-01-12T14:58:46.602Z,100911.25
2023-01-12T15:01:50.425Z,100898.28
2023-01-12T15:05:03.182Z,100901.84
2023-01-12T15:08:08.888Z,100892.69
2023-01-12T15:11:11.207Z,100900.75
2023-01-12T15:14:22.312Z,100909.28
2023-01-12T15:17:43.345Z,100899.31
2023-01-12T15:21:04.886Z,100904.28
2023-01-12T15:24:49.027Z,100895.06
2023-01-12T15:27:51.677Z,100908.34
2023-01-12T15:30:55.769Z,100912.16
2023-01-12T15:33:58.757Z,100899.34
2023-01-12T15:37:01.140Z,100901.25
2023-01-12T15:40:05.553Z,100906.50
2023-01-12T15:43:17.068Z,100908.72
2023-01-12T15:46:22.241Z,100900.91
2023-01-12T15:49:24.684Z,100912.53
2023-01-12T15:52:27.327Z,100914.16
2023-01-12T15:55:36.049Z,100925.16
2023-01-12T15:58:38.911Z,100924.03
2023-01-12T16:01:47.086Z,100926.22
2023-01-12T16:04:49.933Z,100925.09
2023-01-12T16:07:53.093Z,100924.75
2023-01-12T16:11:13.443Z,100928.03
2023-01-12T16:14:16.035Z,100929.97
2023-01-12T16:17:19.013Z,100935.00
2023-01-12T16:20:21.495Z,100923.38
2023-01-12T16:23:24.420Z,100931.72
2023-01-12T16:26:28.530Z,100927.56
2023-01-12T16:29:31.417Z,100932.41
2023-01-12T16:32:33.837Z,100931.44
2023-01-12T16:35:36.688Z,100927.47
2023-01-12T16:38:39.139Z,100929.03
2023-01-12T16:41:42.083Z,100913.19
2023-01-12T16:44:44.608Z,100930.38
2023-01-12T16:47:47.198Z,100929.22
2023-01-12T16:50:49.561Z,100942.53
2023-01-12T16:53:55.148Z,100937.59
2023-01-12T16:56:58.930Z,100932.84
2023-01-12T17:00:01.893Z,100939.97
2023-01-12T17:03:04.941Z,100945.94
2023-01-12T17:06:14.892Z,100935.56
2023-01-12T17:09:17.958Z,100945.19
2023-01-12T17:12:20.788Z,100947.88
2023-01-12T17:15:23.351Z,100946.97
2023-01-12T17:18:27.266Z,100938.09
2023-01-12T17:21:29.773Z,100944.47
2023-01-12T17:24:34.104Z,100941.69
2023-01-12T17:27:36.723Z,100935.59
2023-01-12T17:30:39.585Z,100942.22
2023-01-12T17:33:42.235Z,100933.09
2023-01-12T17:36:45.235Z,100926.09
2023-01-12T17:39:47.689Z,100934.44
2023-01-12T17:43:02.786Z,100926.09
2023-01-12T17:46:08.588Z,100930.91
2023-01-12T17:49:12.217Z,100940.59
2023-01-12T17:52:14.845Z,100942.78
2023-01-12T17:55:17.554Z,100939.25
2023-01-12T17:58:19.953Z,100946.44
2023-01-12T18:01:24.485Z,100937.94
2023-01-12T18:04:27.308Z,100937.41
2023-01-12T18:07:32.004Z,100937.41
2023-01-12T18:10:34.705Z,100937.94
2023-01-12T18:13:38.002Z,100934.91
2023-01-12T18:16:42.230Z,100929.50
2023-01-12T18:19:44.641Z,100940.59
2023-01-12T18:22:47.341Z,100940.88
2023-01-12T18:25:49.690Z,100939.47
2023-01-12T18:28:53.946Z,100946.53
2023-01-12T18:31:56.285Z,100939.06
2023-01-12T18:34:58.970Z,100936.81
2023-01-12T18:38:01.359Z,100943.50
2023-01-12T18:41:22.744Z,100944.88
2023-01-12T18:44:25.442Z,100946.81
2023-01-12T18:47:46.789Z,100944.53
2023-01-12T18:51:11.773Z,100939.44
2023-01-12T18:54:14.407Z,100937.34
2023-01-12T18:57:18.744Z,100943.69
2023-01-12T19:00:23.774Z,100939.44
2023-01-12T19:03:26.123Z,100932.59
2023-01-12T19:06:42.369Z,100933.44
2023-01-12T19:09:44.749Z,100930.34
2023-01-12T19:12:49.227Z,100945.56
2023-01-12T19:16:10.516Z,100934.25
2023-01-12T19:19:13.303Z,100937.03
2023-01-12T19:22:34.320Z,100936.00
2023-01-12T19:25:55.600Z,100911.94
2023-01-12T19:28:57.988Z,100925.06
2023-01-12T19:32:00.657Z,100920.81
2023-01-12T19:35:10.907Z,100921.56
2023-01-12T19:38:14.905Z,100902.00
2023-01-12T19:41:35.870Z,100907.25
2023-01-12T19:44:38.578Z,100892.22
2023-01-12T19:47:41.112Z,100901.44
2023-01-12T19:50:44.999Z,100895.09
2023-01-12T19:53:47.376Z,100882.38
2023-01-12T19:56:50.108Z,100886.72
2023-01-12T19:59:52.445Z,100872.84
2023-01-12T20:02:55.277Z,100861.75
2023-01-12T20:05:58.355Z,100876.72
2023-01-12T20:09:00.752Z,100884.16
2023-01-12T20:12:05.276Z,100874.06
2023-01-12T20:15:08.354Z,100891.25
2023-01-12T20:18:11.149Z,100883.09
2023-01-12T20:21:13.736Z,100893.44
2023-01-12T20:24:16.465Z,100904.09
2023-01-12T20:27:18.940Z,100901.78
2023-01-12T20:30:37.023Z,100902.50
2023-01-12T20:33:39.834Z,100908.19
2023-01-12T20:36:46.000Z,100903.69
2023-01-12T20:39:53.157Z,100910.75
2023-01-12T20:42:55.805Z,100908.97
2023-01-12T20:45:58.146Z,100911.72
2023-01-12T20:49:02.509Z,100908.97
2023-01-12T20:52:04.854Z,100920.84
2023-01-12T20:55:08.322Z,100920.97
2023-01-12T20:58:11.233Z,100915.56
2023-01-12T21:01:15.485Z,100919.75
2023-01-12T21:04:19.479Z,100906.38
2023-01-12T21:07:22.231Z,100915.66
2023-01-12T21:10:24.650Z,100907.78
2023-01-12T21:13:27.271Z,100914.38
2023-01-12T21:16:31.273Z,100910.44
2023-01-12T21:19:34.666Z,100901.00
2023-01-12T21:22:37.132Z,100906.03
2023-01-12T21:25:43.846Z,100907.47
2023-01-12T21:28:46.373Z,100913.19
2023-01-12T21:31:49.293Z,100917.53
2023-01-12T21:34:51.728Z,100916.59
2023-01-12T21:37:54.483Z,100910.59
2023-01-12T21:41:01.787Z,100916.84
2023-01-12T21:44:04.430Z,100912.34
2023-01-12T21:47:06.934Z,100900.63
2023-01-12T21:50:10.336Z,100904.91
2023-01-12T21:53:18.608Z,100910.16
2023-01-12T21:56:21.237Z,100906.12
2023-01-12T21:59:23.641Z,100898.97
2023-01-12T22:02:26.292Z,100906.12
2023-01-12T22:05:29.302Z,100905.03
2023-01-12T22:08:33.881Z,100898.59
2023-01-12T22:11:38.657Z,100897.97
2023-01-12T22:14:40.974Z,100892.56
2023-01-12T22:17:44.130Z,100880.28
2023-01-12T22:20:46.652Z,100885.31
2023-01-12T22:23:49.704Z,100869.88
2023-01-12T22:26:52.317Z,100887.50
2023-01-12T22:29:55.569Z,100881.00
2023-01-12T22:32:57.984Z,100869.69
2023-01-12T22:36:05.272Z,100886.38
2023-01-12T22:39:07.647Z,100884.72
2023-01-12T22:42:10.289Z,100875.75
2023-01-12T22:45:13.605Z,100865.97
2023-01-12T22:48:16.727Z,100867.25
2023-01-12T22:51:21.190Z,100855.31
2023-01-12T22:54:23.798Z,100868.97
2023-01-12T22:57:26.124Z,100862.81
2023-01-12T23:00:28.752Z,100851.81
2023-01-12T23:03:31.605Z,100864.31
2023-01-12T23:06:37.299Z,100850.31
2023-01-12T23:09:39.719Z,100866.66
2023-01-12T23:13:02.646Z,100861.31
2023-01-12T23:16:07.121Z,100870.16
2023-01-12T23:19:10.542Z,100870.50
2023-01-12T23:22:12.874Z,100858.97
2023-01-12T23:25:15.532Z,100861.41
2023-01-12T23:28:17.883Z,100876.69
2023-01-12T23:31:22.422Z,100877.28
2023-01-12T23:34:24.755Z,100869.91
2023-01-12T23:37:27.349Z,100877.19
2023-01-12T23:40:29.789Z,100871.00
2023-01-12T23:43:33.911Z,100869.56
2023-01-12T23:46:39.003Z,100860.63
2023-01-12T23:49:42.955Z,100882.22
2023-01-12T23:52:48.841Z,100875.56
2023-01-12T23:55:52.431Z,100858.16
2023-01-12T23:58:55.078Z,100862.84
